Time;durP1;ratioP1;P1;durP2;ratioP2;P2;SDS_P1;SDS_P2;PMS_P1;PMS_P2;Temp;Humidity;BMP_temperature;BMP_pressure;BME280_temperature;BME280_humidity;BME280_pressure;Samples;Min_cycle;Max_cycle;Signal;HPM_P1;HPM_P2
2021/07/31 00:00:11;;;;;;;21.95;13.65;;;;;;;30.88;37.76;98891.78;5051943;28;20017;-81
2021/07/31 00:02:36;;;;;;;25.60;13.55;;;;;;;30.71;37.83;98861.88;5052105;28;20025;-79
2021/07/31 00:05:01;;;;;;;22.55;13.50;;;;;;;30.51;38.15;98827.94;5050713;28;20037;-79
2021/07/31 00:07:27;;;;;;;27.05;15.13;;;;;;;30.53;38.13;98846.69;5050451;28;20044;-81
2021/07/31 00:09:52;;;;;;;23.77;14.90;;;;;;;30.62;38.13;98855.66;5051534;28;20128;-81
2021/07/31 00:12:18;;;;;;;21.95;14.40;;;;;;;30.79;38.64;98882.84;5050505;28;20075;-80
2021/07/31 00:14:43;;;;;;;22.80;14.18;;;;;;;30.74;38.80;98880.28;5051708;28;20013;-79
2021/07/31 00:17:08;;;;;;;22.02;14.43;;;;;;;30.50;39.05;98847.34;5051591;28;20017;-81
2021/07/31 00:19:35;;;;;;;25.42;14.88;;;;;;;30.85;38.68;98892.44;5051815;28;20020;-80
2021/07/31 00:22:02;;;;;;;20.23;14.45;;;;;;;30.85;39.06;98897.09;5051929;28;20036;-81
2021/07/31 00:24:28;;;;;;;26.23;14.13;;;;;;;30.76;39.28;98899.84;5051487;28;20492;-81
2021/07/31 00:26:54;;;;;;;20.45;14.05;;;;;;;30.70;38.93;98892.19;5051387;28;20029;-81
2021/07/31 00:29:19;;;;;;;21.67;14.10;;;;;;;30.64;39.41;98875.22;5051424;28;20021;-80
2021/07/31 00:31:44;;;;;;;17.58;12.70;;;;;;;30.53;39.52;98872.00;5051487;28;20556;-81
2021/07/31 00:34:10;;;;;;;19.98;13.32;;;;;;;30.22;39.47;98836.84;5051643;28;20025;-81
2021/07/31 00:36:35;;;;;;;22.40;12.45;;;;;;;30.59;39.64;98900.72;5051783;28;20551;-79
2021/07/31 00:39:00;;;;;;;22.02;13.60;;;;;;;30.45;39.26;98896.53;5049933;28;20025;-79
2021/07/31 00:41:26;;;;;;;16.98;12.93;;;;;;;30.23;39.60;98882.00;5051223;28;20379;-80
2021/07/31 00:43:51;;;;;;;22.75;12.68;;;;;;;30.10;39.34;98861.22;5051355;28;20032;-80
2021/07/31 00:46:17;;;;;;;20.83;13.40;;;;;;;30.29;39.82;98898.97;5051382;28;20040;-80
2021/07/31 00:48:43;;;;;;;21.73;12.80;;;;;;;30.19;40.19;98902.03;5051132;28;20044;-79
2021/07/31 00:51:09;;;;;;;22.27;12.43;;;;;;;30.18;40.41;98901.22;5051094;28;20029;-80
2021/07/31 00:53:36;;;;;;;24.45;13.60;;;;;;;29.91;40.22;98869.69;5049998;28;20013;-80
2021/07/31 00:56:01;;;;;;;15.57;11.95;;;;;;;30.08;40.36;98895.31;5052097;28;20032;-80
2021/07/31 00:58:27;;;;;;;19.40;12.75;;;;;;;29.46;40.61;98809.34;5055282;28;20017;-81
2021/07/31 01:00:53;;;;;;;21.55;12.95;;;;;;;29.76;40.61;98872.09;5055161;28;20021;-81
2021/07/31 01:03:18;;;;;;;21.67;13.48;;;;;;;29.95;41.08;98907.94;5054951;28;20021;-79
2021/07/31 01:05:44;;;;;;;18.45;11.82;;;;;;;29.89;41.13;98906.50;5055241;28;20049;-81
2021/07/31 01:08:10;;;;;;;17.67;12.00;;;;;;;29.59;41.17;98873.66;5054906;28;20029;-81
2021/07/31 01:10:35;;;;;;;20.67;12.32;;;;;;;29.03;41.24;98780.19;5054931;28;20048;-81
2021/07/31 01:13:02;;;;;;;16.58;11.98;;;;;;;29.76;41.43;98894.66;5054862;28;20501;-81
2021/07/31 01:15:28;;;;;;;16.67;12.07;;;;;;;29.15;41.53;98812.19;5053711;28;20021;-81
2021/07/31 01:17:53;;;;;;;15.85;11.45;;;;;;;29.70;41.36;98894.00;5055043;28;20056;-79
2021/07/31 01:20:19;;;;;;;18.48;12.43;;;;;;;29.68;41.50;98895.44;5055116;28;20052;-81
2021/07/31 01:22:44;;;;;;;17.50;13.50;;;;;;;29.17;41.87;98834.41;5054997;28;20104;-81
2021/07/31 01:25:10;;;;;;;19.25;12.88;;;;;;;29.28;41.73;98862.91;5054793;28;20029;-76
2021/07/31 01:27:38;;;;;;;16.27;12.35;;;;;;;29.52;41.66;98892.38;5054718;28;20086;-76
2021/07/31 01:30:04;;;;;;;15.70;12.82;;;;;;;29.04;42.02;98819.03;5054668;28;20025;-76
2021/07/31 01:32:29;;;;;;;20.83;13.13;;;;;;;29.59;41.88;98895.44;5054519;28;20027;-74
2021/07/31 01:34:54;;;;;;;17.45;12.23;;;;;;;29.44;41.86;98874.16;5054840;28;20025;-75
2021/07/31 01:37:20;;;;;;;18.60;12.07;;;;;;;29.55;42.27;98882.78;5054560;28;20458;-75
2021/07/31 01:39:47;;;;;;;18.95;12.75;;;;;;;29.57;41.91;98896.88;5054577;28;20025;-77
2021/07/31 01:42:13;;;;;;;16.73;12.02;;;;;;;29.15;42.09;98822.25;5054584;28;20021;-74
2021/07/31 01:44:38;;;;;;;18.15;12.27;;;;;;;29.29;42.04;98840.03;5054475;28;20413;-76
2021/07/31 01:47:04;;;;;;;17.55;12.68;;;;;;;29.21;42.03;98829.13;5054491;28;20025;-77
2021/07/31 01:49:30;;;;;;;18.83;12.77;;;;;;;29.56;41.99;98890.63;5052911;28;20025;-77
2021/07/31 01:51:55;;;;;;;19.83;13.13;;;;;;;29.20;42.01;98833.78;5054143;28;20027;-76
2021/07/31 01:54:21;;;;;;;19.15;13.05;;;;;;;29.22;42.42;98857.94;5052833;28;20043;-75
2021/07/31 01:56:47;;;;;;;20.48;11.95;;;;;;;28.92;42.42;98818.81;5054048;28;20033;-76
2021/07/31 01:59:14;;;;;;;14.75;11.43;;;;;;;29.34;42.33;98883.38;5054130;28;20013;-75
2021/07/31 02:01:40;;;;;;;13.90;11.63;;;;;;;29.19;42.45;98853.13;5054129;28;20558;-76
2021/07/31 02:04:05;;;;;;;20.25;12.80;;;;;;;28.90;42.35;98837.38;5054007;28;20029;-75
2021/07/31 02:06:30;;;;;;;19.25;12.13;;;;;;;29.31;42.45;98891.38;5053428;28;20017;-76
2021/07/31 02:08:56;;;;;;;15.82;12.00;;;;;;;29.22;42.24;98885.13;5053668;28;20017;-77
2021/07/31 02:11:21;;;;;;;17.15;12.50;;;;;;;29.25;42.13;98904.31;5054002;28;20025;-76
2021/07/31 02:13:47;;;;;;;14.98;11.80;;;;;;;29.19;42.35;98886.56;5053793;28;20033;-76
2021/07/31 02:16:29;;;;;;;18.35;11.60;;;;;;;28.88;42.19;98848.53;5053487;28;20413;-75
2021/07/31 02:18:54;;;;;;;18.25;11.85;;;;;;;29.18;42.14;98901.25;5053564;28;20025;-77
2021/07/31 02:21:20;;;;;;;18.90;12.25;;;;;;;29.09;42.12;98895.00;5053899;28;20032;-75
2021/07/31 02:23:46;;;;;;;21.27;12.93;;;;;;;28.97;42.64;98892.84;5052379;28;20382;-81
2021/07/31 02:26:11;;;;;;;13.57;12.05;;;;;;;28.82;42.86;98887.00;5053757;28;20104;-81
2021/07/31 02:28:37;;;;;;;17.30;12.27;;;;;;;28.81;42.70;98899.81;5052390;28;20032;-80
2021/07/31 02:31:03;;;;;;;15.43;11.40;;;;;;;28.82;43.01;98908.75;5053349;28;20387;-80
2021/07/31 02:33:28;;;;;;;16.65;12.02;;;;;;;28.56;43.00;98862.47;5053631;28;20108;-80
2021/07/31 02:35:54;;;;;;;18.60;11.65;;;;;;;28.20;43.29;98819.91;5053794;28;20159;-80
2021/07/31 02:38:19;;;;;;;18.27;12.02;;;;;;;28.44;43.31;98866.56;5053427;28;20521;-80
2021/07/31 02:40:44;;;;;;;15.15;12.00;;;;;;;28.62;43.53;98897.31;5053398;28;20029;-81
2021/07/31 02:43:10;;;;;;;16.27;11.80;;;;;;;28.32;43.32;98866.34;5053207;28;20036;-80
2021/07/31 02:45:36;;;;;;;13.70;10.82;;;;;;;27.88;43.45;98793.06;5053413;28;20515;-81
2021/07/31 02:48:04;;;;;;;18.48;12.77;;;;;;;27.96;43.39;98809.41;5053244;28;20025;-80
2021/07/31 02:50:30;;;;;;;17.73;11.48;;;;;;;28.28;43.50;98878.13;5053376;28;20025;-80
2021/07/31 02:52:56;;;;;;;18.58;12.30;;;;;;;28.57;43.58;98913.75;5053284;28;20032;-81
2021/07/31 02:55:21;;;;;;;16.38;12.13;;;;;;;28.44;43.49;98904.59;5053342;28;20104;-81
2021/07/31 02:57:46;;;;;;;14.45;11.23;;;;;;;28.32;43.82;98893.50;5053013;28;20025;-82
2021/07/31 03:00:12;;;;;;;16.05;11.60;;;;;;;28.00;43.73;98847.56;5053272;28;20017;-79
2021/07/31 03:02:38;;;;;;;18.38;12.40;;;;;;;28.04;43.99;98868.34;5052927;28;20500;-80
2021/07/31 03:05:04;;;;;;;15.35;11.02;;;;;;;28.06;43.93;98870.75;5053112;28;20031;-81
2021/07/31 03:07:32;;;;;;;14.13;11.50;;;;;;;28.31;44.10;98932.63;5052928;28;20020;-81
2021/07/31 03:09:57;;;;;;;17.08;12.60;;;;;;;28.08;44.24;98898.38;5052688;28;20025;-79
2021/07/31 03:12:23;;;;;;;18.20;12.18;;;;;;;28.23;44.18;98918.91;5052677;28;20035;-79
2021/07/31 03:14:48;;;;;;;18.20;11.57;;;;;;;27.76;44.13;98854.09;5052790;28;20023;-80
2021/07/31 03:17:14;;;;;;;17.20;12.40;;;;;;;28.20;44.06;98923.06;5052707;28;20033;-81
2021/07/31 03:19:39;;;;;;;15.75;12.20;;;;;;;28.17;44.18;98923.69;5051756;28;20017;-81
2021/07/31 03:22:05;;;;;;;21.65;12.65;;;;;;;28.07;44.13;98911.16;5052504;28;20459;-79
2021/07/31 03:24:31;;;;;;;19.73;11.70;;;;;;;27.95;44.23;98888.41;5052602;28;20028;-76
2021/07/31 03:26:57;;;;;;;19.23;11.98;;;;;;;28.12;44.38;98918.38;5052408;28;20025;-76
2021/07/31 03:29:22;;;;;;;14.50;12.05;;;;;;;27.84;44.35;98880.50;5052538;28;20410;-76
2021/07/31 03:31:51;;;;;;;15.95;11.27;;;;;;;27.52;44.67;98850.84;5052563;28;20025;-75
2021/07/31 03:34:16;;;;;;;15.60;11.32;;;;;;;27.82;44.54;98888.13;5051360;28;20391;-75
2021/07/31 03:36:41;;;;;;;16.63;12.15;;;;;;;27.89;44.59;98901.28;5052462;28;20032;-76
2021/07/31 03:39:07;;;;;;;17.95;12.02;;;;;;;28.05;44.55;98924.22;5052218;28;20028;-76
2021/07/31 03:41:32;;;;;;;16.60;11.30;;;;;;;27.67;44.86;98874.13;5052150;28;20028;-75
2021/07/31 03:43:58;;;;;;;15.85;11.68;;;;;;;27.97;44.98;98918.75;5050799;28;20539;-76
2021/07/31 03:46:23;;;;;;;21.15;13.73;;;;;;;27.51;44.89;98858.19;5051975;28;20032;-74
2021/07/31 03:48:49;;;;;;;19.42;13.13;;;;;;;27.79;45.14;98905.03;5052188;28;20021;-74
2021/07/31 03:51:14;;;;;;;18.30;13.43;;;;;;;27.89;45.19;98919.47;5051841;28;20100;-76
2021/07/31 03:53:40;;;;;;;22.77;12.48;;;;;;;27.84;45.19;98923.91;5052032;28;20024;-75
2021/07/31 03:56:07;;;;;;;21.52;12.95;;;;;;;27.84;45.01;98936.66;5051891;28;20096;-76
2021/07/31 03:58:32;;;;;;;15.70;12.38;;;;;;;27.55;45.24;98888.19;5051893;28;20032;-76
2021/07/31 04:00:58;;;;;;;15.85;12.43;;;;;;;27.71;45.36;98924.75;5051893;28;20480;-76
2021/07/31 04:03:23;;;;;;;21.35;12.63;;;;;;;27.67;45.21;98917.53;5050579;28;20108;-77
2021/07/31 04:05:48;;;;;;;16.85;12.52;;;;;;;27.48;45.33;98901.34;5050570;28;20096;-76
2021/07/31 04:08:14;;;;;;;18.10;11.88;;;;;;;27.21;45.80;98864.25;5051714;28;20489;-77
2021/07/31 04:10:41;;;;;;;14.57;12.10;;;;;;;27.67;45.83;98945.47;5051855;28;20087;-76
2021/07/31 04:13:07;;;;;;;14.02;12.57;;;;;;;27.43;45.69;98907.69;5051943;28;20039;-76
2021/07/31 04:15:32;;;;;;;17.80;12.90;;;;;;;27.52;45.97;98922.16;5051830;28;20025;-76
2021/07/31 04:17:57;;;;;;;21.58;14.25;;;;;;;27.69;45.77;98947.88;5051689;28;20036;-76
2021/07/31 04:20:23;;;;;;;18.10;13.68;;;;;;;27.35;45.89;98894.03;5051640;28;20101;-76
2021/07/31 04:22:48;;;;;;;20.92;13.70;;;;;;;27.15;46.19;98874.41;5051763;28;20032;-77
2021/07/31 04:25:14;;;;;;;17.90;13.85;;;;;;;27.27;46.04;98903.69;5051809;28;20081;-77
2021/07/31 04:27:39;;;;;;;18.70;14.75;;;;;;;27.70;46.13;98961.13;5051833;28;20061;-76
2021/07/31 04:30:06;;;;;;;19.42;13.98;;;;;;;27.34;46.07;98897.84;5051172;28;20029;-75
2021/07/31 04:32:31;;;;;;;18.20;14.02;;;;;;;27.56;46.04;98918.84;5051628;28;20028;-75
2021/07/31 04:34:57;;;;;;;18.30;12.75;;;;;;;27.60;45.97;98928.75;5051316;28;20028;-75
2021/07/31 04:37:22;;;;;;;23.52;13.52;;;;;;;27.69;46.08;98954.09;5051244;28;20463;-77
2021/07/31 04:39:47;;;;;;;14.98;12.32;;;;;;;27.77;46.16;98966.94;5051628;28;20021;-76
2021/07/31 04:42:13;;;;;;;16.70;11.65;;;;;;;27.83;46.46;98976.56;5051544;28;20025;-75
2021/07/31 04:44:38;;;;;;;15.30;11.70;;;;;;;27.85;46.42;98968.13;5049967;28;20551;-75
2021/07/31 04:47:04;;;;;;;15.27;11.45;;;;;;;27.78;46.72;98973.97;5051382;28;20020;-75
2021/07/31 04:49:29;;;;;;;15.00;12.18;;;;;;;27.76;46.66;98978.88;5049968;28;20021;-75
2021/07/31 04:51:54;;;;;;;15.63;11.52;;;;;;;27.56;46.85;98937.81;5051126;28;20444;-75
2021/07/31 04:54:20;;;;;;;13.63;12.05;;;;;;;27.83;46.63;98975.75;5051353;28;20017;-75
2021/07/31 04:56:45;;;;;;;22.85;11.85;;;;;;;27.92;46.67;98981.25;5050954;28;20564;-75
2021/07/31 04:59:11;;;;;;;13.95;10.27;;;;;;;27.94;46.73;98982.56;5051065;28;20021;-75
2021/07/31 05:01:36;;;;;;;19.55;11.93;;;;;;;27.72;46.65;98939.91;5051092;28;20033;-75
2021/07/31 05:04:01;;;;;;;18.40;11.52;;;;;;;27.75;46.59;98939.31;5050907;28;20108;-75
2021/07/31 05:06:27;;;;;;;15.35;11.55;;;;;;;28.00;46.55;98961.53;5051284;28;20021;-75
2021/07/31 05:08:52;;;;;;;16.50;12.48;;;;;;;27.99;46.85;98968.88;5050961;28;20464;-75
2021/07/31 05:11:24;;;;;;;17.50;10.73;;;;;;;27.92;46.87;98964.97;5049859;28;20028;-76
2021/07/31 05:13:50;;;;;;;13.27;10.43;;;;;;;27.63;46.80;98924.66;5050959;28;20028;-75
2021/07/31 05:16:17;;;;;;;14.98;10.32;;;;;;;28.00;46.75;98964.25;5050805;28;20026;-75
2021/07/31 05:18:43;;;;;;;13.23;9.32;;;;;;;28.25;46.52;98990.88;5050704;28;20025;-75
2021/07/31 05:21:09;;;;;;;13.98;10.40;;;;;;;28.32;46.23;98993.94;5051098;28;20025;-74
2021/07/31 05:23:36;;;;;;;18.70;10.52;;;;;;;28.37;46.12;98990.31;5049691;28;20414;-81
2021/07/31 05:26:02;;;;;;;11.95;10.10;;;;;;;28.35;46.31;98981.66;5051158;28;20029;-79
2021/07/31 05:28:27;;;;;;;15.27;9.95;;;;;;;28.35;46.38;98966.19;5049469;28;20017;-82
2021/07/31 05:30:52;;;;;;;14.75;9.38;;;;;;;28.20;46.10;98936.63;5050836;28;20413;-80
2021/07/31 05:33:18;;;;;;;15.93;10.00;;;;;;;28.27;45.89;98945.19;5050833;28;20029;-81
2021/07/31 05:35:43;;;;;;;13.20;9.85;;;;;;;28.62;45.93;98995.13;5050818;28;20051;-80
2021/07/31 05:38:08;;;;;;;12.30;9.05;;;;;;;28.32;46.17;98961.38;5050708;28;20036;-79
2021/07/31 05:40:34;;;;;;;13.32;10.95;;;;;;;28.57;46.12;98999.88;5050736;28;20025;-81
2021/07/31 05:43:00;;;;;;;13.95;9.57;;;;;;;28.52;46.60;98989.13;5052891;28;20497;-81
2021/07/31 05:45:26;;;;;;;18.10;10.38;;;;;;;28.46;46.45;98980.31;5054717;28;20032;-81
2021/07/31 05:47:51;;;;;;;17.33;9.45;;;;;;;28.57;46.34;98983.56;5053416;28;20037;-81
2021/07/31 05:50:17;;;;;;;18.73;11.07;;;;;;;28.36;46.57;98945.25;5054293;28;20490;-81
2021/07/31 05:52:42;;;;;;;16.77;11.15;;;;;;;28.27;46.14;98919.97;5054529;28;20021;-80
2021/07/31 05:55:08;;;;;;;16.70;10.85;;;;;;;28.40;46.27;98935.38;5054327;28;20502;-80
2021/07/31 05:57:34;;;;;;;16.15;10.05;;;;;;;28.74;46.09;98997.25;5054202;28;20028;-80
2021/07/31 05:59:59;;;;;;;18.00;10.85;;;;;;;28.81;46.15;99011.22;5054519;28;20075;-80
2021/07/31 06:02:25;;;;;;;17.58;11.05;;;;;;;28.77;46.43;99013.75;5054268;28;20036;-80
2021/07/31 06:04:50;;;;;;;14.18;10.57;;;;;;;28.86;46.30;99002.97;5054376;28;20403;-80
2021/07/31 06:07:16;;;;;;;17.70;11.50;;;;;;;28.97;46.07;99001.56;5054003;28;20096;-81
2021/07/31 06:09:42;;;;;;;19.02;10.65;;;;;;;29.13;45.79;99006.63;5052618;28;20115;-78
2021/07/31 06:12:10;;;;;;;18.55;12.13;;;;;;;29.23;45.58;98996.28;5054029;28;20120;-80
2021/07/31 06:14:39;;;;;;;17.75;11.90;;;;;;;29.15;45.59;98990.81;5054153;28;20095;-82
2021/07/31 06:17:06;;;;;;;17.25;12.38;;;;;;;29.10;45.58;98972.72;5054218;28;20025;-81
2021/07/31 06:19:32;;;;;;;21.05;13.30;;;;;;;29.25;45.14;98976.94;5054021;28;20094;-82
2021/07/31 06:21:59;;;;;;;16.27;12.25;;;;;;;29.44;45.53;98993.81;5054058;28;20037;-82
2021/07/31 06:24:25;;;;;;;21.27;11.55;;;;;;;29.53;44.88;98997.38;5054206;28;20036;-81
2021/07/31 06:26:51;;;;;;;19.88;12.15;;;;;;;29.26;44.95;98959.50;5053469;28;20029;-81
2021/07/31 06:29:16;;;;;;;18.65;11.70;;;;;;;29.54;44.73;98988.09;5053576;28;20090;-81
2021/07/31 06:31:42;;;;;;;16.33;11.52;;;;;;;29.59;44.67;98987.94;5053706;28;20074;-81
2021/07/31 06:34:08;;;;;;;23.45;13.13;;;;;;;29.80;44.49;99006.41;5053679;28;20112;-81
2021/07/31 06:36:34;;;;;;;22.88;11.93;;;;;;;29.68;44.64;98982.50;5053405;28;20025;-80
2021/07/31 06:39:04;;;;;;;19.33;11.82;;;;;;;29.70;44.33;98980.28;5053415;28;20025;-79
2021/07/31 06:41:29;;;;;;;18.17;11.32;;;;;;;29.51;44.08;98947.09;5053245;28;20033;-81
2021/07/31 06:43:56;;;;;;;15.90;11.02;;;;;;;30.00;43.72;99014.75;5053121;28;20532;-81
2021/07/31 06:46:25;;;;;;;23.95;12.63;;;;;;;29.72;43.72;98969.88;5053065;28;20029;-80
2021/07/31 06:48:53;;;;;;;20.55;12.10;;;;;;;29.70;43.60;98940.25;5051846;28;20529;-81
2021/07/31 06:51:19;;;;;;;18.13;11.68;;;;;;;29.62;42.87;98913.84;5053179;28;20056;-81
2021/07/31 06:53:46;;;;;;;21.50;10.57;;;;;;;29.99;42.76;98957.91;5053334;28;20409;-79
2021/07/31 06:56:11;;;;;;;18.35;11.43;;;;;;;29.80;42.77;98930.22;5053103;28;20099;-80
2021/07/31 06:58:37;;;;;;;20.77;10.80;;;;;;;29.99;42.28;98966.06;5052979;28;20497;-81
2021/07/31 07:01:02;;;;;;;20.13;10.23;;;;;;;30.41;42.00;99009.97;5053123;28;20025;-81
2021/07/31 07:03:28;;;;;;;18.55;10.70;;;;;;;30.40;41.93;98998.28;5053186;28;20112;-81
2021/07/31 07:05:53;;;;;;;18.80;10.98;;;;;;;30.47;41.66;99005.97;5053119;28;20037;-81
2021/07/31 07:08:19;;;;;;;19.95;10.05;;;;;;;30.22;41.83;98964.03;5053164;28;20032;-81
2021/07/31 07:10:44;;;;;;;17.10;11.00;;;;;;;30.49;41.26;98993.66;5052746;28;20391;-81
2021/07/31 07:13:10;;;;;;;17.80;10.60;;;;;;;30.29;41.34;98973.31;5052627;28;20051;-83
2021/07/31 07:15:36;;;;;;;18.95;10.02;;;;;;;30.64;40.93;99006.00;5052767;28;20056;-80
2021/07/31 07:18:02;;;;;;;12.80;9.43;;;;;;;30.50;40.99;98983.56;5053008;28;20061;-81
2021/07/31 07:20:27;;;;;;;15.52;9.65;;;;;;;30.75;40.63;99001.81;5053224;28;20025;-79
2021/07/31 07:22:53;;;;;;;13.35;9.20;;;;;;;30.40;40.64;98926.66;5052849;28;20035;-81
2021/07/31 07:25:19;;;;;;;15.80;9.35;;;;;;;30.95;40.86;98992.13;5052838;28;20033;-77
2021/07/31 07:27:44;;;;;;;17.92;10.60;;;;;;;30.93;40.68;98981.56;5051114;28;20382;-74
2021/07/31 07:30:11;;;;;;;22.70;10.27;;;;;;;31.12;40.11;99005.72;5052380;28;20025;-75
2021/07/31 07:32:37;;;;;;;20.38;10.18;;;;;;;30.86;40.24;98951.28;5052371;28;20029;-77
2021/07/31 07:35:04;;;;;;;13.75;9.30;;;;;;;31.31;40.03;99012.75;5052464;28;20044;-75
2021/07/31 07:37:29;;;;;;;13.55;9.30;;;;;;;31.32;39.86;99015.16;5052275;28;20097;-77
2021/07/31 07:39:55;;;;;;;18.80;9.88;;;;;;;31.07;40.03;98969.63;5052285;28;20481;-74
2021/07/31 07:42:20;;;;;;;17.05;9.63;;;;;;;31.10;39.52;98960.78;5052079;28;20029;-76
2021/07/31 07:44:46;;;;;;;20.63;9.52;;;;;;;31.48;39.00;99005.28;5052149;28;20029;-76
2021/07/31 07:47:11;;;;;;;14.25;9.40;;;;;;;31.56;38.94;99007.16;5052500;28;20387;-77
2021/07/31 07:49:37;;;;;;;17.02;9.70;;;;;;;31.64;38.24;99001.97;5052272;28;20170;-76
2021/07/31 07:52:03;;;;;;;15.75;8.88;;;;;;;31.71;38.28;99019.47;5051863;28;20025;-76
2021/07/31 07:54:29;;;;;;;13.95;9.50;;;;;;;31.75;37.63;98995.03;5050811;28;20433;-76
2021/07/31 07:57:03;;;;;;;17.10;9.73;;;;;;;31.89;37.41;98999.09;5052167;28;20056;-76
2021/07/31 07:59:29;;;;;;;15.95;8.93;;;;;;;32.02;37.37;99004.66;5052086;28;20474;-76
2021/07/31 08:01:54;;;;;;;18.95;10.07;;;;;;;32.10;37.11;99007.34;5051818;28;20044;-76
2021/07/31 08:04:19;;;;;;;18.08;9.52;;;;;;;32.18;36.83;98998.25;5051660;28;20424;-75
2021/07/31 08:06:45;;;;;;;16.17;9.70;;;;;;;31.74;36.55;98933.38;5050167;28;20029;-74
2021/07/31 08:09:10;;;;;;;20.13;8.52;;;;;;;31.88;36.76;98942.91;5051682;28;20108;-74
2021/07/31 08:11:36;;;;;;;12.40;8.10;;;;;;;31.91;36.61;98938.69;5051784;28;20394;-76
2021/07/31 08:14:01;;;;;;;15.85;9.48;;;;;;;32.32;36.46;98989.81;5051899;28;20033;-76
2021/07/31 08:16:27;;;;;;;15.77;8.50;;;;;;;32.38;36.47;98985.75;5051524;28;20021;-76
2021/07/31 08:18:53;;;;;;;17.13;8.77;;;;;;;32.56;36.03;98986.38;5050156;28;20020;-75
2021/07/31 08:21:18;;;;;;;15.65;8.95;;;;;;;32.64;36.14;98980.03;5051564;28;20028;-76
2021/07/31 08:23:44;;;;;;;11.80;8.40;;;;;;;32.74;35.66;98976.09;5050303;28;20026;-81
2021/07/31 08:26:12;;;;;;;13.57;9.25;;;;;;;32.44;35.43;98912.56;5051571;28;20033;-81
2021/07/31 08:28:44;;;;;;;14.27;9.45;;;;;;;32.46;35.12;98900.16;5051238;28;20027;-79
2021/07/31 08:31:11;;;;;;;16.90;9.43;;;;;;;32.69;35.19;98938.78;5051345;28;20025;-82
2021/07/31 08:33:37;;;;;;;12.57;9.13;;;;;;;32.84;34.87;98935.47;5050088;28;20145;-81
2021/07/31 08:36:05;;;;;;;13.77;8.77;;;;;;;32.80;34.75;98901.72;5051676;28;20053;-81
2021/07/31 08:38:31;;;;;;;16.13;8.70;;;;;;;33.15;34.58;98928.63;5051354;28;20517;-80
2021/07/31 08:40:57;;;;;;;15.88;9.20;;;;;;;33.46;34.51;98958.19;5051327;28;20029;-80
2021/07/31 08:43:23;;;;;;;14.88;9.63;;;;;;;33.61;33.90;98957.50;5051093;28;20136;-81
2021/07/31 08:45:49;;;;;;;20.75;9.63;;;;;;;33.63;33.64;98957.16;5051519;28;20104;-80
2021/07/31 08:48:16;;;;;;;16.33;9.63;;;;;;;33.61;33.65;98941.06;5050210;28;20033;-80
2021/07/31 08:50:43;;;;;;;14.02;9.75;;;;;;;33.74;33.35;98950.06;5051444;28;20021;-81
2021/07/31 08:53:09;;;;;;;17.02;10.25;;;;;;;33.92;33.36;98959.63;5051343;28;20075;-79
2021/07/31 08:55:34;;;;;;;14.45;9.88;;;;;;;33.97;33.05;98939.41;5051287;28;20025;-81
2021/07/31 08:58:00;;;;;;;17.17;10.10;;;;;;;34.16;32.73;98947.78;5050998;28;20088;-81
2021/07/31 09:00:26;;;;;;;18.65;9.20;;;;;;;33.86;32.47;98889.00;5051014;28;20409;-82
2021/07/31 09:02:51;;;;;;;16.10;9.27;;;;;;;34.34;31.87;98948.31;5051357;28;20036;-79
2021/07/31 09:05:31;;;;;;;15.10;9.20;;;;;;;34.37;31.60;98923.75;5049720;28;20099;-81
2021/07/31 09:08:01;;;;;;;16.88;9.23;;;;;;;34.46;31.35;98915.38;5051925;28;20032;-81
2021/07/31 09:10:28;;;;;;;15.98;10.10;;;;;;;34.40;31.25;98884.66;5051031;28;20029;-80
2021/07/31 09:12:59;;;;;;;15.75;9.43;;;;;;;34.82;31.01;98919.84;5049707;28;20027;-82
2021/07/31 09:15:33;;;;;;;17.67;9.57;;;;;;;35.00;31.29;98948.53;5050959;28;20122;-80
2021/07/31 09:18:23;;;;;;;18.58;9.18;;;;;;;35.11;30.85;98935.06;5052031;28;20125;-81
2021/07/31 09:21:00;;;;;;;14.13;9.40;;;;;;;34.94;30.94;98895.09;5054050;28;20048;-81
2021/07/31 09:23:34;;;;;;;20.23;9.45;;;;;;;35.43;30.15;98944.06;5055246;28;20464;-81
2021/07/31 09:26:01;;;;;;;18.15;10.13;;;;;;;35.57;30.02;98949.09;5054915;28;20389;-82
2021/07/31 09:28:28;;;;;;;15.25;8.80;;;;;;;35.39;29.70;98895.72;5053575;28;20449;-80
2021/07/31 09:30:54;;;;;;;14.13;9.68;;;;;;;35.85;29.88;98937.97;5053809;28;20054;-82
2021/07/31 09:33:20;;;;;;;15.88;9.52;;;;;;;36.02;29.78;98937.53;5053468;28;20139;-82
2021/07/31 09:35:46;;;;;;;20.63;9.82;;;;;;;36.09;29.04;98921.19;5054669;28;20486;-81
2021/07/31 09:38:12;;;;;;;15.50;10.18;;;;;;;36.25;29.23;98932.09;5053597;28;20060;-82
2021/07/31 09:40:38;;;;;;;15.48;8.80;;;;;;;36.44;28.78;98936.84;5054573;28;20032;-81
2021/07/31 09:43:17;;;;;;;14.95;9.27;;;;;;;36.32;28.50;98880.03;5054486;28;20033;-83
2021/07/31 09:45:43;;;;;;;13.85;8.80;;;;;;;36.51;28.19;98902.00;5054636;28;20029;-82
2021/07/31 09:48:10;;;;;;;12.82;8.40;;;;;;;36.75;27.97;98922.06;5054773;28;20113;-79
2021/07/31 09:50:35;;;;;;;21.73;9.90;;;;;;;36.86;27.67;98920.31;5054407;28;20036;-82
2021/07/31 09:53:25;;;;;;;17.08;9.82;;;;;;;36.91;26.86;98893.28;5053194;28;20025;-81
2021/07/31 09:55:55;;;;;;;15.25;9.15;;;;;;;37.11;27.33;98904.97;5054084;28;20116;-81
2021/07/31 09:58:21;;;;;;;17.70;8.98;;;;;;;37.31;26.93;98910.44;5053247;28;20493;-81
2021/07/31 10:00:52;;;;;;;16.48;9.18;;;;;;;37.14;26.88;98864.91;5054419;28;20066;-80
2021/07/31 10:03:18;;;;;;;16.58;9.20;;;;;;;37.56;26.72;98902.50;5054351;28;20021;-81
2021/07/31 10:05:44;;;;;;;20.27;9.75;;;;;;;37.65;26.35;98900.28;5054121;28;20064;-83
2021/07/31 10:08:11;;;;;;;24.67;10.20;;;;;;;37.77;26.15;98895.34;5054221;28;20052;-79
2021/07/31 10:10:36;;;;;;;21.25;10.13;;;;;;;37.41;25.56;98829.94;5054260;28;20043;-81
2021/07/31 10:13:02;;;;;;;16.83;9.38;;;;;;;37.92;25.89;98879.78;5052626;28;20410;-81
2021/07/31 10:15:28;;;;;;;20.17;10.10;;;;;;;37.96;25.73;98844.78;5053757;28;20024;-82
2021/07/31 10:17:54;;;;;;;19.55;9.68;;;;;;;38.31;25.47;98888.50;5054174;28;20495;-80
2021/07/31 10:20:28;;;;;;;21.20;10.13;;;;;;;38.46;25.48;98883.91;5054043;28;20070;-80
2021/07/31 10:22:54;;;;;;;20.23;10.43;;;;;;;38.56;24.60;98863.13;5053953;28;20047;-80
2021/07/31 10:25:21;;;;;;;20.33;10.07;;;;;;;38.67;24.98;98844.75;5053966;28;20032;-81
2021/07/31 10:27:47;;;;;;;18.23;11.15;;;;;;;38.85;24.91;98858.66;5053143;28;20133;-82
2021/07/31 10:30:34;;;;;;;17.08;10.60;;;;;;;38.85;23.75;98842.91;5052246;28;20021;-81
2021/07/31 10:33:01;;;;;;;19.35;10.57;;;;;;;38.89;24.15;98854.75;5053406;28;20425;-79
2021/07/31 10:35:37;;;;;;;18.30;10.77;;;;;;;38.94;24.19;98848.09;5052068;28;20074;-80
2021/07/31 10:38:05;;;;;;;14.98;9.63;;;;;;;39.07;24.17;98847.41;5053786;28;20021;-79
2021/07/31 10:40:34;;;;;;;18.38;9.80;;;;;;;39.19;23.91;98851.03;5053384;28;20021;-80
2021/07/31 10:42:59;;;;;;;18.38;9.95;;;;;;;39.26;23.04;98848.31;5053182;28;20501;-80
2021/07/31 10:45:29;;;;;;;18.65;10.23;;;;;;;39.12;23.28;98813.13;5051763;28;20130;-80
2021/07/31 10:48:02;;;;;;;13.90;9.77;;;;;;;39.55;23.18;98838.25;5053318;28;20496;-82
2021/07/31 10:50:29;;;;;;;19.35;10.05;;;;;;;39.69;23.16;98835.53;5053221;28;20107;-80
2021/07/31 10:53:14;;;;;;;16.95;9.63;;;;;;;39.88;22.40;98840.72;5053218;28;20166;-80
2021/07/31 10:55:42;;;;;;;15.30;9.05;;;;;;;39.93;21.93;98831.28;5052159;28;20032;-80
2021/07/31 10:58:13;;;;;;;15.52;8.82;;;;;;;39.93;22.26;98837.59;5053290;28;20032;-80
2021/07/31 11:00:42;;;;;;;;;;;;;;;39.92;22.57;98840.72;5053410;28;20020;-80
2021/07/31 11:03:28;;;;;;;16.02;11.05;;;;;;;40.05;22.42;98833.66;5052868;28;20413;-79
2021/07/31 11:06:05;;;;;;;21.08;11.50;;;;;;;40.20;22.15;98832.53;5051475;28;20029;-79
2021/07/31 11:08:47;;;;;;;20.98;12.25;;;;;;;40.20;21.79;98795.78;5053214;28;20032;-81
2021/07/31 11:11:15;;;;;;;16.98;9.50;;;;;;;40.53;21.27;98827.84;5052994;28;20409;-81
2021/07/31 11:13:49;;;;;;;20.85;11.63;;;;;;;40.60;20.98;98825.84;5052810;28;20029;-80
2021/07/31 11:16:19;;;;;;;17.83;9.95;;;;;;;40.70;20.81;98824.25;5051365;28;20028;-80